Terminal Aerodrome Forecast
Issued by NWS Cleveland, OH

Home | Current Version | Previous Version | Graphics & Text | Print | Product List | Glossary On
Versions: 1 2 3 4 5 6 7 8 9 10 11 12 13 14 15 16 17 18 19 20 21 22 23
364
FTUS41 KCLE 252335
TAFMFD
TAF
KMFD 252335Z 2600/2624 22012KT P6SM BKN070 BKN100
     FM260600 23012KT P6SM -SHRA OVC050
     FM261100 24012G18KT P6SM OVC030
     FM261600 30010KT P6SM OVC010
     FM262100 36013KT P6SM OVC020=

USA.gov is the U.S. government's official web portal to all federal, state and local government web resources and services.